Time;durP1;ratioP1;P1;durP2;ratioP2;P2;SDS_P1;SDS_P2;PMS_P1;PMS_P2;Temp;Humidity;BMP_temperature;BMP_pressure;BME280_temperature;BME280_humidity;BME280_pressure;Samples;Min_cycle;Max_cycle;Signal;HPM_P1;HPM_P2
2022/07/14 00:01:58;;;;;;;3.77;2.50;;;22.70;62.30;;;;;;4996206;28;20458;-78
2022/07/14 00:04:25;;;;;;;2.87;1.90;;;22.70;62.70;;;;;;4997904;28;20995;-80
2022/07/14 00:06:53;;;;;;;1.93;1.80;;;22.70;62.90;;;;;;4996356;28;20494;-80
2022/07/14 00:09:20;;;;;;;1.93;1.83;;;22.70;63.30;;;;;;4997306;28;20524;-80
2022/07/14 00:11:47;;;;;;;1.70;1.60;;;22.70;63.60;;;;;;4997231;28;20481;-80
2022/07/14 00:14:14;;;;;;;1.47;1.47;;;22.60;63.10;;;;;;4997667;28;20490;-79
2022/07/14 00:16:40;;;;;;;1.93;1.83;;;22.50;63.30;;;;;;5000478;28;20565;-79
2022/07/14 00:19:07;;;;;;;1.60;1.50;;;22.50;63.30;;;;;;4999325;28;20458;-79
2022/07/14 00:21:34;;;;;;;1.67;1.57;;;22.40;63.20;;;;;;5000201;28;20467;-79
2022/07/14 00:24:02;;;;;;;2.43;2.33;;;22.40;63.40;;;;;;4999868;28;20519;-79
2022/07/14 00:26:29;;;;;;;1.70;1.60;;;22.30;63.40;;;;;;4999806;28;20478;-79
2022/07/14 00:28:55;;;;;;;1.90;1.40;;;22.50;63.30;;;;;;4997904;28;20477;-80
2022/07/14 00:31:22;;;;;;;2.00;1.90;;;22.50;63.30;;;;;;4976507;28;20454;-80
2022/07/14 00:33:49;;;;;;;2.50;2.40;;;22.60;63.30;;;;;;4990448;28;20493;-80
2022/07/14 00:36:16;;;;;;;1.83;1.73;;;22.60;63.20;;;;;;4994789;28;20505;-80
2022/07/14 00:38:43;;;;;;;1.50;1.40;;;22.60;63.50;;;;;;4995145;28;21124;-80
2022/07/14 00:41:11;;;;;;;2.30;2.20;;;22.60;64.30;;;;;;4995254;28;20449;-80
2022/07/14 00:43:38;;;;;;;1.60;1.50;;;22.60;64.70;;;;;;4995675;28;20466;-80
2022/07/14 00:46:05;;;;;;;1.83;1.50;;;22.60;64.90;;;;;;4994833;28;21037;-80
2022/07/14 00:48:32;;;;;;;1.50;1.40;;;22.60;65.20;;;;;;4995158;28;20454;-80
2022/07/14 00:50:59;;;;;;;1.93;1.83;;;22.50;64.40;;;;;;4995018;28;20455;-80
2022/07/14 00:53:25;;;;;;;1.90;1.80;;;22.50;64.20;;;;;;4995183;28;20487;-80
2022/07/14 00:55:52;;;;;;;1.80;1.70;;;22.50;64.10;;;;;;4994662;28;20471;-80
2022/07/14 00:58:20;;;;;;;2.10;1.53;;;22.40;64.10;;;;;;4995085;28;20462;-80
2022/07/14 01:00:47;;;;;;;1.93;1.73;;;22.40;64.30;;;;;;4994371;28;20451;-80
2022/07/14 01:03:14;;;;;;;2.00;1.90;;;22.40;64.60;;;;;;4995070;28;20846;-80
2022/07/14 01:05:41;;;;;;;4.97;1.97;;;22.40;64.50;;;;;;4995274;28;20490;-80
2022/07/14 01:08:07;;;;;;;1.67;1.57;;;22.40;64.50;;;;;;4999089;28;20463;-81
2022/07/14 01:10:35;;;;;;;6.93;1.80;;;22.30;64.60;;;;;;4999103;28;20454;-81
2022/07/14 01:13:04;;;;;;;2.00;1.47;;;22.20;64.90;;;;;;4999382;28;20466;-81
2022/07/14 01:15:32;;;;;;;3.13;1.40;;;22.00;64.90;;;;;;4998886;28;20477;-81
2022/07/14 01:17:59;;;;;;;2.77;1.90;;;22.00;65.20;;;;;;4998192;28;20450;-80
2022/07/14 01:20:26;;;;;;;2.70;1.77;;;22.00;65.50;;;;;;4998842;28;20462;-81
2022/07/14 01:22:56;;;;;;;3.20;1.53;;;22.00;64.90;;;;;;4998778;28;20470;-81
2022/07/14 01:25:22;;;;;;;1.70;1.60;;;21.90;63.80;;;;;;4999283;28;20505;-81
2022/07/14 01:27:49;;;;;;;1.60;1.50;;;21.90;63.70;;;;;;4998754;28;20461;-81
2022/07/14 01:30:16;;;;;;;1.53;1.43;;;21.90;63.20;;;;;;4998010;28;20489;-81
2022/07/14 01:32:43;;;;;;;2.00;1.60;;;21.90;63.90;;;;;;4999018;28;20461;-81
2022/07/14 01:35:10;;;;;;;2.67;2.30;;;21.90;64.00;;;;;;4986244;28;20489;-81
2022/07/14 01:37:37;;;;;;;2.00;1.80;;;21.90;64.20;;;;;;4997920;28;20450;-81
2022/07/14 01:40:07;;;;;;;1.50;1.50;;;21.80;64.70;;;;;;4999036;28;20827;-81
2022/07/14 01:42:34;;;;;;;1.60;1.47;;;21.60;62.00;;;;;;4998663;28;20449;-80
2022/07/14 01:45:01;;;;;;;1.50;1.50;;;21.60;61.70;;;;;;4998874;28;20472;-81
2022/07/14 01:47:27;;;;;;;1.93;1.63;;;21.50;61.70;;;;;;4996982;28;20465;-80
2022/07/14 01:49:54;;;;;;;1.70;1.60;;;21.50;61.70;;;;;;4994845;28;20828;-80
2022/07/14 01:52:21;;;;;;;1.60;1.50;;;21.60;62.00;;;;;;4994441;28;20457;-80
2022/07/14 01:54:47;;;;;;;1.30;1.30;;;21.50;62.40;;;;;;4994687;28;21040;-80
2022/07/14 01:57:16;;;;;;;1.20;1.20;;;21.50;61.80;;;;;;4993502;28;20457;-80
2022/07/14 01:59:42;;;;;;;2.00;1.80;;;21.40;60.10;;;;;;4994919;28;20452;-80
2022/07/14 02:02:09;;;;;;;2.73;1.50;;;21.50;60.00;;;;;;4994476;28;20460;-80
2022/07/14 02:04:36;;;;;;;1.53;1.40;;;21.30;59.90;;;;;;4994280;28;20835;-80
2022/07/14 02:07:02;;;;;;;2.10;1.40;;;21.30;60.30;;;;;;4994401;28;20454;-80
2022/07/14 02:12:12;;;;;;;2.40;1.40;;;21.20;60.20;;;;;;4994712;28;20507;-80
2022/07/14 02:14:41;;;;;;;3.03;1.60;;;21.20;60.10;;;;;;4994123;28;20491;-80
2022/07/14 02:17:09;;;;;;;1.50;1.40;;;21.30;60.40;;;;;;4993962;28;20447;-80
2022/07/14 02:19:36;;;;;;;1.70;1.60;;;21.30;61.60;;;;;;4994249;28;20464;-80
2022/07/14 02:22:04;;;;;;;1.37;1.37;;;21.20;61.20;;;;;;4994566;28;20461;-80
2022/07/14 02:24:31;;;;;;;1.50;1.47;;;21.20;60.40;;;;;;4994429;28;20483;-80
2022/07/14 02:26:58;;;;;;;1.33;1.27;;;21.20;60.10;;;;;;4993785;28;20984;-80
2022/07/14 02:29:24;;;;;;;1.70;1.60;;;21.10;60.30;;;;;;4994379;28;20847;-80
2022/07/14 02:31:53;;;;;;;1.77;1.47;;;21.10;61.90;;;;;;4994026;28;20465;-80
2022/07/14 02:34:20;;;;;;;2.00;1.90;;;21.00;62.10;;;;;;4994314;28;20491;-80
2022/07/14 02:36:47;;;;;;;1.60;1.50;;;21.00;62.90;;;;;;4994888;28;20499;-80
2022/07/14 02:39:14;;;;;;;1.73;1.63;;;20.90;63.10;;;;;;4995776;28;20455;-80
2022/07/14 02:41:41;;;;;;;1.70;1.37;;;20.80;62.00;;;;;;4996633;28;20847;-80
2022/07/14 02:44:08;;;;;;;1.57;1.57;;;20.80;62.80;;;;;;4999152;28;20443;-80
2022/07/14 02:46:36;;;;;;;3.20;1.90;;;20.70;63.70;;;;;;4999116;28;21006;-80
2022/07/14 02:49:04;;;;;;;2.33;2.23;;;20.60;64.50;;;;;;4998760;28;20828;-80
2022/07/14 02:51:31;;;;;;;1.57;1.47;;;20.50;64.60;;;;;;4999133;28;20983;-81
2022/07/14 02:53:57;;;;;;;1.67;1.57;;;20.50;63.70;;;;;;4998516;28;20482;-81
2022/07/14 02:56:24;;;;;;;1.73;1.63;;;20.40;64.50;;;;;;4998675;28;20478;-80
2022/07/14 02:58:51;;;;;;;1.27;1.20;;;20.30;63.10;;;;;;4998741;28;20466;-80
2022/07/14 03:01:18;;;;;;;1.80;1.70;;;20.30;63.30;;;;;;4999040;28;20458;-80
2022/07/14 03:03:45;;;;;;;2.43;2.00;;;20.30;63.90;;;;;;4998291;28;20492;-80
2022/07/14 03:06:14;;;;;;;2.10;2.00;;;20.30;64.80;;;;;;4999852;28;20479;-83
2022/07/14 03:08:42;;;;;;;1.70;1.60;;;20.30;66.20;;;;;;5000335;28;20455;-83
2022/07/14 03:11:09;;;;;;;1.83;1.73;;;20.20;67.30;;;;;;5000583;28;20455;-83
2022/07/14 03:13:36;;;;;;;2.20;2.00;;;20.10;68.20;;;;;;5000374;28;20453;-83
2022/07/14 03:16:06;;;;;;;1.80;1.70;;;20.00;69.10;;;;;;5000145;28;20979;-83
2022/07/14 03:18:33;;;;;;;2.07;1.60;;;20.00;70.60;;;;;;5000403;28;20456;-83
2022/07/14 03:21:00;;;;;;;2.17;1.63;;;19.90;70.50;;;;;;5000366;28;20456;-83
2022/07/14 03:23:28;;;;;;;2.17;1.97;;;19.80;70.90;;;;;;5000598;28;20466;-83
2022/07/14 03:25:55;;;;;;;4.13;2.20;;;19.70;71.60;;;;;;5000533;28;20468;-83
2022/07/14 03:28:21;;;;;;;2.47;2.27;;;19.60;72.90;;;;;;5000055;28;20462;-83
2022/07/14 03:30:55;;;;;;;2.70;2.03;;;19.60;74.70;;;;;;5000237;28;20999;-82
2022/07/14 03:33:22;;;;;;;2.73;2.30;;;19.50;75.80;;;;;;5000357;28;20448;-83
2022/07/14 03:35:49;;;;;;;2.07;1.83;;;19.50;76.60;;;;;;4999439;28;20556;-83
2022/07/14 03:38:16;;;;;;;3.47;3.13;;;19.40;77.30;;;;;;4999248;28;20457;-80
2022/07/14 03:40:44;;;;;;;3.83;2.67;;;19.40;77.90;;;;;;4997836;28;20974;-80
2022/07/14 03:43:11;;;;;;;4.30;2.70;;;19.40;78.20;;;;;;4997814;28;20514;-81
2022/07/14 03:45:38;;;;;;;4.13;3.07;;;19.30;78.50;;;;;;4998033;28;21011;-80
2022/07/14 03:48:07;;;;;;;3.03;2.83;;;19.20;78.90;;;;;;4997300;28;20451;-80
2022/07/14 03:50:34;;;;;;;4.27;3.00;;;19.20;78.90;;;;;;4997828;28;20455;-80
2022/07/14 03:53:00;;;;;;;3.27;2.00;;;19.30;77.50;;;;;;4997335;28;20455;-80
2022/07/14 03:55:27;;;;;;;2.57;2.00;;;19.20;75.20;;;;;;4997555;28;20490;-79
2022/07/14 03:57:56;;;;;;;1.50;1.33;;;19.20;73.90;;;;;;4996944;28;20459;-80
2022/07/14 04:00:22;;;;;;;1.80;1.70;;;19.10;70.70;;;;;;4997522;28;20980;-80
2022/07/14 04:02:49;;;;;;;2.23;1.60;;;19.20;71.60;;;;;;4997073;28;20451;-81
2022/07/14 04:05:16;;;;;;;1.77;1.67;;;19.30;70.20;;;;;;4997453;28;20475;-80
2022/07/14 04:07:43;;;;;;;1.97;1.87;;;19.40;70.50;;;;;;4996933;28;20451;-80
2022/07/14 04:10:09;;;;;;;1.60;1.50;;;19.50;69.60;;;;;;4997356;28;20458;-80
2022/07/14 04:12:36;;;;;;;1.63;1.53;;;19.60;68.30;;;;;;4997118;28;20454;-80
2022/07/14 04:15:05;;;;;;;1.47;1.37;;;19.60;68.30;;;;;;4998510;28;21042;-80
2022/07/14 04:17:32;;;;;;;1.80;1.70;;;19.70;67.30;;;;;;4995484;28;20451;-80
2022/07/14 04:19:58;;;;;;;2.00;1.80;;;19.80;68.30;;;;;;4996033;28;20464;-80
2022/07/14 04:22:25;;;;;;;2.07;1.53;;;19.90;68.20;;;;;;4996198;28;20452;-80
2022/07/14 04:24:52;;;;;;;2.03;1.80;;;20.00;68.30;;;;;;4995713;28;20471;-80
2022/07/14 04:27:19;;;;;;;2.00;1.90;;;20.00;68.80;;;;;;4995246;28;20470;-80
2022/07/14 04:29:46;;;;;;;1.70;1.60;;;20.10;68.00;;;;;;4995881;28;20479;-80
2022/07/14 04:32:14;;;;;;;1.60;1.50;;;20.10;67.20;;;;;;4996400;28;20451;-80
2022/07/14 04:34:41;;;;;;;1.70;1.60;;;20.10;67.50;;;;;;4995543;28;21098;-80
2022/07/14 04:37:07;;;;;;;1.90;1.80;;;20.20;68.60;;;;;;4995201;28;20454;-80
2022/07/14 04:39:34;;;;;;;1.70;1.60;;;20.20;67.70;;;;;;4995607;28;20469;-80
2022/07/14 04:42:01;;;;;;;2.93;2.30;;;20.20;70.30;;;;;;4996076;28;20470;-80
2022/07/14 04:44:27;;;;;;;2.00;1.90;;;20.30;71.00;;;;;;4995045;28;20443;-80
2022/07/14 04:46:54;;;;;;;2.60;2.43;;;20.30;71.50;;;;;;4996035;28;20460;-80
2022/07/14 04:52:07;;;;;;;4.47;2.20;;;20.30;72.80;;;;;;4995937;28;20831;-79
2022/07/14 04:54:36;;;;;;;2.97;2.77;;;20.20;74.10;;;;;;4995825;28;20501;-80
2022/07/14 04:57:04;;;;;;;2.80;2.60;;;20.20;75.90;;;;;;4995516;28;20452;-80
2022/07/14 04:59:32;;;;;;;6.00;2.47;;;20.10;77.80;;;;;;4995726;28;20459;-80
2022/07/14 05:01:58;;;;;;;2.60;2.40;;;20.10;78.60;;;;;;4995669;28;20842;-81
2022/07/14 05:04:26;;;;;;;3.90;2.20;;;20.00;78.80;;;;;;4995300;28;20803;-79
2022/07/14 05:06:55;;;;;;;2.30;2.20;;;20.00;79.60;;;;;;4994303;28;20959;-81
2022/07/14 05:09:23;;;;;;;2.97;2.50;;;20.00;80.20;;;;;;4994047;28;20545;-79
2022/07/14 05:11:50;;;;;;;2.23;2.13;;;20.00;81.70;;;;;;4994467;28;20531;-79
2022/07/14 05:14:17;;;;;;;3.10;2.40;;;20.00;83.20;;;;;;4994140;28;20458;-80
2022/07/14 05:16:45;;;;;;;2.50;2.10;;;20.00;84.00;;;;;;4995094;28;20481;-79
2022/07/14 05:19:12;;;;;;;3.17;2.50;;;20.10;85.60;;;;;;4994215;28;20455;-79
2022/07/14 05:21:40;;;;;;;3.00;2.80;;;20.10;86.60;;;;;;4994026;28;20458;-80
2022/07/14 05:24:07;;;;;;;3.83;3.07;;;20.10;87.70;;;;;;4993934;28;20471;-79
2022/07/14 05:26:34;;;;;;;2.33;2.23;;;20.20;89.10;;;;;;4994443;28;20479;-80
2022/07/14 05:29:00;;;;;;;2.60;2.40;;;20.20;89.90;;;;;;4995273;28;20482;-80
2022/07/14 05:31:27;;;;;;;2.83;2.60;;;20.30;90.10;;;;;;4996353;28;20453;-81
2022/07/14 05:33:55;;;;;;;4.77;2.47;;;20.40;90.10;;;;;;4995198;28;20455;-80
2022/07/14 05:36:22;;;;;;;2.57;2.40;;;20.40;90.10;;;;;;4995043;28;20502;-80
2022/07/14 05:38:51;;;;;;;3.90;2.90;;;20.50;90.40;;;;;;4995260;28;20455;-79
2022/07/14 05:41:19;;;;;;;2.53;2.40;;;20.60;90.60;;;;;;4995260;28;20456;-80
2022/07/14 05:43:46;;;;;;;3.13;2.93;;;20.60;90.90;;;;;;4995465;28;20467;-79
2022/07/14 05:46:13;;;;;;;2.70;2.47;;;20.70;91.10;;;;;;4993268;28;20468;-79
2022/07/14 05:48:41;;;;;;;2.80;2.60;;;20.80;90.20;;;;;;4993506;28;20453;-79
2022/07/14 05:51:11;;;;;;;5.20;3.00;;;20.90;88.10;;;;;;4993212;28;20495;-78
2022/07/14 05:53:38;;;;;;;2.50;2.20;;;21.00;84.00;;;;;;4992607;28;20457;-79
2022/07/14 05:56:07;;;;;;;2.10;2.00;;;21.10;81.80;;;;;;4992871;28;20583;-79
2022/07/14 05:58:34;;;;;;;2.80;2.60;;;21.30;81.40;;;;;;4994104;28;20457;-79
2022/07/14 06:01:01;;;;;;;2.30;2.20;;;21.40;82.00;;;;;;4992958;28;20450;-79
2022/07/14 06:03:27;;;;;;;2.43;2.00;;;21.50;81.50;;;;;;4993684;28;20801;-79
2022/07/14 06:05:54;;;;;;;2.23;2.03;;;21.70;80.70;;;;;;4993184;28;20474;-80
2022/07/14 06:08:21;;;;;;;2.70;2.20;;;21.80;76.40;;;;;;4996033;28;20456;-81
2022/07/14 06:10:48;;;;;;;2.87;1.97;;;21.90;74.90;;;;;;4996609;28;20453;-81
2022/07/14 06:13:16;;;;;;;2.20;2.10;;;22.10;74.80;;;;;;4996278;28;20451;-80
2022/07/14 06:15:44;;;;;;;1.80;1.67;;;22.30;75.30;;;;;;4993536;28;20483;-81
2022/07/14 06:18:11;;;;;;;1.83;1.70;;;22.50;72.20;;;;;;5000330;28;20485;-83
2022/07/14 06:20:41;;;;;;;3.87;2.67;;;22.80;71.30;;;;;;5000636;28;20461;-81
2022/07/14 06:23:09;;;;;;;1.60;1.50;;;23.00;70.80;;;;;;5001908;28;20451;-81
2022/07/14 06:25:36;;;;;;;1.67;1.57;;;23.10;69.60;;;;;;4999660;28;20538;-80
2022/07/14 06:28:02;;;;;;;2.10;1.80;;;23.30;68.50;;;;;;4998155;28;20453;-78
2022/07/14 06:30:31;;;;;;;2.10;1.90;;;23.30;66.70;;;;;;4999332;28;20465;-78
2022/07/14 06:32:58;;;;;;;1.93;1.73;;;23.50;66.50;;;;;;4999587;28;20455;-79
2022/07/14 06:35:25;;;;;;;1.80;1.70;;;23.60;66.30;;;;;;4999521;28;20486;-78
2022/07/14 06:37:52;;;;;;;2.53;1.53;;;23.80;66.60;;;;;;4999804;28;20447;-78
2022/07/14 06:40:19;;;;;;;2.00;1.90;;;23.90;65.60;;;;;;5007378;28;20462;-79
2022/07/14 06:42:46;;;;;;;2.10;1.83;;;24.00;64.60;;;;;;5011110;28;20475;-81
2022/07/14 06:45:13;;;;;;;2.90;1.60;;;24.10;64.10;;;;;;5007432;28;20990;-82
2022/07/14 06:47:42;;;;;;;1.93;1.83;;;24.10;64.90;;;;;;5005397;28;20518;-81
2022/07/14 06:50:10;;;;;;;1.43;1.33;;;24.30;64.50;;;;;;5007843;28;20479;-81
2022/07/14 06:52:37;;;;;;;1.60;1.53;;;24.40;64.20;;;;;;5007292;28;20449;-80
2022/07/14 06:55:05;;;;;;;1.73;1.63;;;24.50;63.40;;;;;;5007201;28;20559;-79
2022/07/14 06:57:32;;;;;;;2.50;2.30;;;24.60;64.40;;;;;;5006566;28;20451;-80
2022/07/14 06:59:59;;;;;;;1.77;1.67;;;24.70;63.10;;;;;;5007901;28;20449;-81
2022/07/14 07:02:26;;;;;;;2.33;1.90;;;24.80;63.20;;;;;;5008842;28;20452;-81
2022/07/14 07:07:36;;;;;;;1.67;1.57;;;25.00;62.60;;;;;;5004210;28;20454;-79
2022/07/14 07:10:04;;;;;;;1.50;1.40;;;25.10;63.70;;;;;;5007687;28;20455;-79
2022/07/14 07:12:31;;;;;;;2.03;1.87;;;25.20;62.30;;;;;;5006931;28;20464;-79
2022/07/14 07:14:58;;;;;;;2.80;2.23;;;25.40;60.80;;;;;;5006950;28;20478;-79
2022/07/14 07:17:24;;;;;;;1.80;1.70;;;25.50;62.20;;;;;;5006299;28;20462;-79
2022/07/14 07:19:51;;;;;;;1.63;1.53;;;25.50;63.30;;;;;;5007016;28;20526;-79
2022/07/14 07:22:19;;;;;;;1.70;1.60;;;25.50;62.80;;;;;;5006120;28;20473;-79
2022/07/14 07:24:46;;;;;;;6.90;2.37;;;25.70;60.90;;;;;;5005559;28;20467;-79
2022/07/14 07:27:13;;;;;;;2.00;1.80;;;25.70;60.90;;;;;;5007821;28;20460;-80
2022/07/14 07:29:39;;;;;;;2.57;2.40;;;25.80;62.30;;;;;;5008336;28;20536;-79
2022/07/14 07:32:07;;;;;;;1.87;1.77;;;26.00;61.20;;;;;;5010584;28;20455;-79
2022/07/14 07:34:36;;;;;;;2.40;2.20;;;26.20;61.50;;;;;;5008029;28;20663;-78
2022/07/14 07:37:03;;;;;;;2.00;1.90;;;26.20;60.80;;;;;;5007282;28;20531;-79
2022/07/14 07:39:33;;;;;;;2.30;2.10;;;26.50;60.60;;;;;;5007484;28;20464;-79
2022/07/14 07:42:01;;;;;;;2.33;2.13;;;26.70;59.40;;;;;;5006960;28;20457;-80
2022/07/14 07:44:28;;;;;;;3.03;2.13;;;26.90;60.60;;;;;;5008311;28;20512;-78
2022/07/14 07:46:55;;;;;;;2.00;1.90;;;27.00;59.70;;;;;;5007909;28;20457;-79
2022/07/14 07:49:21;;;;;;;3.33;3.03;;;27.20;60.50;;;;;;5008460;28;20540;-79
2022/07/14 07:51:48;;;;;;;2.53;2.20;;;27.30;59.20;;;;;;5008298;28;20532;-79
2022/07/14 07:54:15;;;;;;;2.10;2.00;;;27.40;58.40;;;;;;5007323;28;20464;-79
2022/07/14 07:56:43;;;;;;;2.30;2.10;;;27.50;59.60;;;;;;5003520;28;20496;-79
2022/07/14 07:59:10;;;;;;;2.80;2.13;;;27.60;59.30;;;;;;5001641;28;20447;-79
2022/07/14 08:01:37;;;;;;;2.80;2.57;;;27.80;58.60;;;;;;5003640;28;20462;-78
2022/07/14 08:04:04;;;;;;;2.17;2.07;;;27.90;58.80;;;;;;5009496;28;20460;-82
2022/07/14 08:06:31;;;;;;;2.00;1.77;;;28.00;58.30;;;;;;5008968;28;20485;-80
2022/07/14 08:08:57;;;;;;;2.17;2.07;;;28.20;56.50;;;;;;4995309;28;20467;-81
2022/07/14 08:11:24;;;;;;;1.80;1.70;;;28.10;53.70;;;;;;5012779;28;20474;-83
2022/07/14 08:13:52;;;;;;;1.63;1.53;;;28.00;54.30;;;;;;5011797;28;20542;-83
2022/07/14 08:16:19;;;;;;;1.97;1.87;;;28.00;53.50;;;;;;5020521;23;20498;-84
2022/07/14 08:19:01;;;;;;;4.30;2.10;;;28.00;52.50;;;;;;4993508;28;20524;-84
2022/07/14 08:21:28;;;;;;;2.33;2.23;;;28.00;52.60;;;;;;4996539;28;20880;-82
2022/07/14 08:23:54;;;;;;;2.17;2.07;;;28.10;53.00;;;;;;4996094;28;20461;-77
2022/07/14 08:26:27;;;;;;;3.00;1.80;;;28.20;52.40;;;;;;5010480;28;20498;-86
2022/07/14 08:29:03;;;;;;;2.83;2.20;;;28.20;52.80;;;;;;5015080;28;20442;-85
2022/07/14 08:31:29;;;;;;;4.67;2.40;;;28.20;51.80;;;;;;5014323;28;20454;-77
2022/07/14 08:33:56;;;;;;;1.93;1.83;;;28.20;51.70;;;;;;5014335;28;20454;-77
2022/07/14 08:36:23;;;;;;;2.70;2.37;;;28.30;52.90;;;;;;5012223;28;20527;-79
2022/07/14 08:38:50;;;;;;;2.20;2.00;;;28.30;51.80;;;;;;5013029;28;20453;-84
2022/07/14 08:41:16;;;;;;;4.07;2.73;;;28.40;51.60;;;;;;5016434;28;20530;-82
2022/07/14 08:43:44;;;;;;;2.30;2.10;;;28.40;53.50;;;;;;5014521;28;20455;-77
2022/07/14 08:46:13;;;;;;;3.93;2.23;;;28.50;52.50;;;;;;5011160;28;20481;-79
2022/07/14 08:48:39;;;;;;;2.27;2.17;;;28.40;51.20;;;;;;5016566;28;20443;-77
2022/07/14 08:51:08;;;;;;;2.33;1.73;;;28.40;51.10;;;;;;5015980;28;20446;-78
2022/07/14 08:53:36;;;;;;;2.40;2.20;;;28.40;52.20;;;;;;5014018;28;20473;-78
2022/07/14 08:56:03;;;;;;;2.73;2.33;;;28.50;51.60;;;;;;5016224;28;20478;-79
2022/07/14 08:58:30;;;;;;;2.50;2.10;;;28.70;51.30;;;;;;5016441;28;20779;-79
2022/07/14 09:00:58;;;;;;;2.10;2.00;;;28.70;52.20;;;;;;5016385;28;20452;-80
2022/07/14 09:03:26;;;;;;;2.57;2.37;;;28.80;52.20;;;;;;5015169;28;20464;-77
2022/07/14 09:05:53;;;;;;;2.60;2.30;;;29.00;53.10;;;;;;5016812;23;20503;-81
2022/07/14 09:08:20;;;;;;;3.77;2.30;;;29.00;51.20;;;;;;4975736;28;20462;-82
2022/07/14 09:10:47;;;;;;;2.13;1.93;;;29.00;48.80;;;;;;4975314;28;20547;-82
2022/07/14 09:13:26;;;;;;;1.80;1.70;;;29.00;48.30;;;;;;4975324;28;20455;-85
2022/07/14 09:16:14;;;;;;;2.70;2.00;;;29.10;49.10;;;;;;4987225;28;20489;-84
2022/07/14 09:19:03;;;;;;;2.10;2.00;;;29.30;48.00;;;;;;4988433;28;20461;-85
2022/07/14 09:21:30;;;;;;;1.97;1.83;;;29.50;47.00;;;;;;4998714;28;20462;-84
2022/07/14 09:23:58;;;;;;;5.50;2.07;;;29.60;45.20;;;;;;4998006;28;20946;-84
2022/07/14 09:50:04;;;;;;;1.33;1.33;;;30.90;40.80;;;;;;4931156;29;20443;-82
2022/07/14 09:52:32;;;;;;;3.60;1.80;;;30.90;40.00;;;;;;4957436;29;20464;-82
2022/07/14 09:54:59;;;;;;;1.70;1.60;;;31.00;40.40;;;;;;4998101;28;20515;-82
2022/07/14 09:57:27;;;;;;;2.60;1.90;;;31.00;40.40;;;;;;5000576;28;21041;-81
2022/07/14 09:59:57;;;;;;;2.33;2.13;;;31.10;40.30;;;;;;5000849;28;20465;-81
2022/07/14 10:02:26;;;;;;;1.87;1.67;;;31.40;39.80;;;;;;5000968;28;20458;-81
2022/07/14 10:04:55;;;;;;;2.50;2.40;;;31.40;40.30;;;;;;5001337;28;20487;-81
2022/07/14 10:07:25;;;;;;;3.87;1.90;;;31.50;39.40;;;;;;4999221;28;20481;-82
2022/07/14 10:10:00;;;;;;;1.73;1.63;;;31.40;40.40;;;;;;5004655;28;20458;-81
2022/07/14 10:12:27;;;;;;;1.73;1.63;;;31.30;39.00;;;;;;5001828;28;20502;-81
2022/07/14 10:14:54;;;;;;;2.40;1.70;;;31.30;38.50;;;;;;5001344;28;20448;-82
2022/07/14 21:07:38;;;;;;;3.70;3.40;;;22.30;61.90;;;;;;5028006;23;20498;-76
2022/07/14 21:10:07;;;;;;;4.33;3.83;;;22.20;62.00;;;;;;4995153;28;20438;-78
2022/07/14 21:12:34;;;;;;;3.33;3.13;;;22.20;62.30;;;;;;4995594;28;20480;-79
2022/07/14 21:15:03;;;;;;;5.23;4.73;;;22.20;61.60;;;;;;4995718;28;20440;-78
2022/07/14 21:17:30;;;;;;;4.70;3.83;;;22.20;61.70;;;;;;5005223;28;20494;-78
2022/07/14 21:19:57;;;;;;;4.53;4.13;;;22.20;61.70;;;;;;5014928;28;20453;-77
2022/07/14 21:22:24;;;;;;;4.10;3.80;;;22.10;61.60;;;;;;5014804;28;20497;-79
2022/07/14 21:24:52;;;;;;;3.90;3.70;;;22.10;61.60;;;;;;5015227;28;20464;-77
2022/07/14 21:27:19;;;;;;;4.80;4.40;;;22.00;62.00;;;;;;5014324;28;20478;-78
2022/07/14 21:29:46;;;;;;;4.60;4.20;;;21.90;61.80;;;;;;5014937;28;20448;-77
2022/07/14 21:32:13;;;;;;;4.57;4.17;;;21.80;62.30;;;;;;5014639;28;20450;-77
2022/07/14 21:34:40;;;;;;;7.03;4.10;;;21.80;62.50;;;;;;5015049;28;20434;-78
2022/07/14 21:37:07;;;;;;;3.53;3.33;;;21.80;62.10;;;;;;5014472;28;20504;-78
2022/07/14 21:39:34;;;;;;;4.63;3.43;;;21.70;61.20;;;;;;5001788;28;20453;-80
2022/07/14 21:42:03;;;;;;;4.77;3.23;;;21.60;59.70;;;;;;4996208;28;20501;-81
2022/07/14 21:44:31;;;;;;;4.70;4.40;;;21.50;59.70;;;;;;4996690;28;20453;-81
2022/07/14 21:46:59;;;;;;;4.40;4.00;;;21.50;59.70;;;;;;4997679;28;20873;-81
2022/07/14 21:49:28;;;;;;;5.17;3.30;;;21.40;59.60;;;;;;5004760;28;20464;-80
2022/07/14 21:51:55;;;;;;;6.90;4.63;;;21.40;59.80;;;;;;5006557;28;20457;-80
2022/07/14 21:54:22;;;;;;;3.80;3.40;;;21.40;59.70;;;;;;5000857;28;20453;-78
2022/07/14 21:56:49;;;;;;;4.10;3.80;;;21.40;59.70;;;;;;4999718;28;20492;-80
2022/07/14 21:59:17;;;;;;;3.30;3.00;;;21.30;59.50;;;;;;5000382;28;20453;-80
2022/07/14 22:01:44;;;;;;;5.50;3.50;;;21.30;59.50;;;;;;4999869;28;20453;-81
2022/07/14 22:04:11;;;;;;;3.30;2.50;;;21.20;59.50;;;;;;4999817;28;20456;-80
2022/07/14 22:06:38;;;;;;;4.23;3.93;;;21.20;59.70;;;;;;4999348;28;20483;-80
2022/07/14 22:09:05;;;;;;;3.13;2.90;;;21.20;59.80;;;;;;5000029;28;20453;-80
2022/07/14 22:11:32;;;;;;;4.33;3.93;;;21.20;59.90;;;;;;4999907;28;20805;-80
2022/07/14 22:13:59;;;;;;;3.90;3.10;;;21.10;60.20;;;;;;4999217;28;20461;-80
2022/07/14 22:16:27;;;;;;;3.20;3.00;;;21.10;60.40;;;;;;4999349;28;20465;-79
2022/07/14 22:18:54;;;;;;;5.80;3.10;;;21.00;60.90;;;;;;4999387;28;20500;-79
2022/07/14 22:21:21;;;;;;;3.77;3.47;;;20.90;61.50;;;;;;5000867;28;20465;-80
2022/07/14 22:23:48;;;;;;;4.60;4.10;;;21.00;61.80;;;;;;5005779;28;20453;-80
2022/07/14 22:26:15;;;;;;;4.97;4.57;;;21.00;62.20;;;;;;4998884;28;20453;-80
2022/07/14 22:28:41;;;;;;;8.60;3.60;;;20.90;62.50;;;;;;4999113;28;20463;-80
2022/07/14 22:31:09;;;;;;;4.90;3.63;;;20.80;63.20;;;;;;4999089;28;21009;-79
2022/07/14 22:33:37;;;;;;;6.20;3.77;;;20.70;63.80;;;;;;4999404;28;20967;-80
2022/07/14 22:36:06;;;;;;;5.37;5.00;;;20.50;64.20;;;;;;4998720;28;20450;-79
2022/07/14 22:38:33;;;;;;;6.07;3.50;;;20.50;64.50;;;;;;5002881;28;20480;-80
2022/07/14 22:41:00;;;;;;;4.30;3.67;;;20.40;64.60;;;;;;5003094;28;20810;-81
2022/07/14 22:43:26;;;;;;;4.50;4.17;;;20.30;65.10;;;;;;4999156;28;20467;-80
2022/07/14 22:45:53;;;;;;;5.70;3.83;;;20.20;65.30;;;;;;4998316;28;20450;-81
2022/07/14 22:48:20;;;;;;;4.00;3.70;;;20.20;65.40;;;;;;4998736;28;20468;-81
2022/07/14 22:50:49;;;;;;;4.43;3.43;;;20.20;65.60;;;;;;4998826;28;20451;-81
2022/07/14 22:53:16;;;;;;;4.80;3.70;;;20.20;65.70;;;;;;4998634;28;20895;-81
2022/07/14 22:55:43;;;;;;;5.30;4.27;;;20.10;65.70;;;;;;4998494;28;20464;-81
2022/07/14 22:58:09;;;;;;;3.70;3.50;;;20.10;66.00;;;;;;4997605;28;21016;-80
2022/07/14 23:00:36;;;;;;;3.17;2.97;;;20.00;66.30;;;;;;4998473;28;20460;-80
2022/07/14 23:03:03;;;;;;;4.00;3.70;;;19.90;66.30;;;;;;4999364;28;21008;-80
2022/07/14 23:05:30;;;;;;;3.67;3.37;;;19.90;66.50;;;;;;4999208;28;20460;-81
2022/07/14 23:07:58;;;;;;;3.00;2.80;;;19.80;66.50;;;;;;4997804;28;20486;-81
2022/07/14 23:10:25;;;;;;;3.30;3.00;;;19.80;66.60;;;;;;4998877;28;21022;-78
2022/07/14 23:12:51;;;;;;;6.07;4.37;;;19.80;66.20;;;;;;4998834;28;20463;-80
2022/07/14 23:15:34;;;;;;;4.17;2.97;;;19.80;65.50;;;;;;4998430;28;20451;-80
2022/07/14 23:18:03;;;;;;;3.47;3.17;;;19.70;63.90;;;;;;4998522;28;20263;-81
2022/07/14 23:20:32;;;;;;;3.87;3.60;;;19.80;63.70;;;;;;4998330;28;20458;-81
2022/07/14 23:23:02;;;;;;;4.07;2.97;;;19.80;63.00;;;;;;4998199;28;20550;-80
2022/07/14 23:25:29;;;;;;;3.93;3.47;;;19.70;62.70;;;;;;4997813;28;20495;-80
2022/07/14 23:27:56;;;;;;;3.40;3.10;;;19.70;62.40;;;;;;4999552;28;20468;-80
2022/07/14 23:30:23;;;;;;;4.50;4.07;;;19.70;62.60;;;;;;5003629;28;20439;-80
2022/07/14 23:32:53;;;;;;;3.70;3.50;;;19.70;62.70;;;;;;4998226;28;20453;-81
2022/07/14 23:35:21;;;;;;;5.07;3.17;;;19.70;63.00;;;;;;4997544;28;20969;-80
2022/07/14 23:37:47;;;;;;;4.23;3.47;;;19.60;63.20;;;;;;4997419;28;20501;-80
2022/07/14 23:40:16;;;;;;;5.70;3.57;;;19.60;62.90;;;;;;4998107;28;20550;-80
2022/07/14 23:42:44;;;;;;;3.57;3.27;;;19.50;62.80;;;;;;4997995;28;20446;-81
2022/07/14 23:45:11;;;;;;;4.00;3.67;;;19.50;62.00;;;;;;4997874;28;20458;-81
2022/07/14 23:47:39;;;;;;;5.83;3.53;;;19.50;62.20;;;;;;4997499;28;20475;-81
2022/07/14 23:50:11;;;;;;;3.30;3.10;;;19.50;62.20;;;;;;4997507;28;20455;-80
2022/07/14 23:52:38;;;;;;;3.63;3.40;;;19.50;62.10;;;;;;4998454;28;20458;-81
2022/07/14 23:55:06;;;;;;;3.90;3.60;;;19.40;62.30;;;;;;4998162;28;20454;-81
2022/07/14 23:57:36;;;;;;;3.43;3.13;;;19.40;62.40;;;;;;4997679;28;20490;-81
